Weather at Meiringen Airport

Public forecast

Using degrees Celsius for public forecast. Weather courtesy of forecast.io.

Current aviation weather report (METAR) for Meiringen Airport

Retrieved 2020/10/25 15:20 UTC (31 minutes ago):

LSMM 251520Z AUTO 25009KT 9999NDV NCD 11/06 Q1008 RMK

Aviation forecast (TAF) for Meiringen Airport

Retrieved 2020/10/25 10:00 UTC (6 hours ago):

TAF LSMM 250925Z 2510/2616 VRB03KT CAVOK BECMG 2521/2524 9999 FEW050 BKN100 TEMPO 2603/2610 27015G25KT TEMPO 2604/2616 RA PROB30 TEMPO 2610/2616 5000 BKN012